Terminal Aerodrome Forecast
Issued by NWS

Home | Current Version | Previous Version | Text Only | Print | Product List | Glossary On
Versions: 1 2 3 4 5 6 7 8 9 10 11 12 13 14 15 16 17 18 19 20 21 22 23 24 25 26 27 28 29 30 31 32 33 34 35 36 37 38 39 40 41 42 43 44 45 46 47 48 49 50
409
FTUS43 KMKX 182322
TAFUES
TAF
KUES 182322Z 1900/1924 22008KT P6SM OVC007
     FM190300 23008KT 5SM BR BKN006
     FM190600 23008KT 4SM BR BKN005
     FM191600 20005KT P6SM SCT008
     FM192000 17005KT P6SM BKN050
     FM192300 13004KT P6SM -RA OVC045=

USA.gov is the U.S. government's official web portal to all federal, state and local government web resources and services.